createdAt,value
2019-05-18T00:01:31.457Z,8.90
2019-05-18T00:04:18.271Z,9.13
2019-05-18T00:07:05.199Z,9.23
2019-05-18T00:09:51.945Z,9.10
2019-05-18T00:12:38.691Z,9.17
2019-05-18T00:15:25.562Z,8.80
2019-05-18T00:18:12.107Z,8.90
2019-05-18T00:20:58.900Z,8.90
2019-05-18T00:23:45.665Z,8.80
2019-05-18T00:26:32.313Z,9.00
2019-05-18T00:29:19.212Z,9.30
2019-05-18T00:32:06.004Z,9.03
2019-05-18T00:34:52.623Z,9.07
2019-05-18T00:37:39.372Z,8.93
2019-05-18T00:40:26.056Z,8.70
2019-05-18T00:43:12.664Z,9.03
2019-05-18T00:45:59.509Z,9.10
2019-05-18T00:48:46.301Z,9.00
2019-05-18T00:51:33.145Z,9.10
2019-05-18T00:54:19.651Z,9.00
2019-05-18T00:57:10.547Z,9.20
2019-05-18T00:59:55.074Z,8.70
2019-05-18T01:02:41.915Z,9.23
2019-05-18T01:05:28.730Z,9.10
2019-05-18T01:08:17.391Z,9.10
2019-05-18T01:11:04.399Z,9.07
2019-05-18T01:13:50.920Z,9.33
2019-05-18T01:16:37.776Z,9.43
2019-05-18T01:19:25.404Z,8.80
2019-05-18T01:22:12.143Z,8.90
2019-05-18T01:24:58.827Z,9.00
2019-05-18T01:27:45.437Z,9.27
2019-05-18T01:30:32.126Z,9.60
2019-05-18T01:33:18.944Z,9.30
2019-05-18T01:36:06.553Z,8.97
2019-05-18T01:38:53.141Z,9.00
2019-05-18T01:41:39.877Z,9.40
2019-05-18T01:44:26.749Z,9.10
2019-05-18T01:47:15.502Z,9.33
2019-05-18T01:50:02.184Z,9.07
2019-05-18T01:52:51.431Z,9.43
2019-05-18T01:55:38.180Z,9.10
2019-05-18T01:58:24.967Z,9.10
2019-05-18T02:01:13.949Z,9.17
2019-05-18T02:04:00.967Z,9.20
2019-05-18T02:06:47.529Z,9.20
2019-05-18T02:09:34.386Z,9.20
2019-05-18T02:12:21.069Z,9.17
2019-05-18T02:15:08.337Z,9.20
2019-05-18T02:17:54.984Z,9.30
2019-05-18T02:20:41.950Z,9.30
2019-05-18T02:23:28.475Z,9.50
2019-05-18T02:26:15.187Z,9.10
2019-05-18T02:29:03.048Z,9.33
2019-05-18T02:31:49.688Z,8.97
2019-05-18T02:34:36.433Z,9.07
2019-05-18T02:37:23.385Z,9.17
2019-05-18T02:40:10.515Z,9.00
2019-05-18T02:42:57.242Z,9.20
2019-05-18T02:45:45.896Z,9.00
2019-05-18T02:48:47.577Z,9.20
2019-05-18T02:51:21.634Z,8.90
2019-05-18T02:54:08.312Z,9.10
2019-05-18T02:56:55.181Z,9.27
2019-05-18T02:59:41.958Z,9.00
2019-05-18T03:02:28.655Z,9.27
2019-05-18T03:05:16.275Z,9.17
2019-05-18T03:08:03.258Z,9.13
2019-05-18T03:10:49.937Z,9.50
2019-05-18T03:13:36.626Z,9.10
2019-05-18T03:16:23.549Z,9.10
2019-05-18T03:19:12.122Z,9.30
2019-05-18T03:22:01.117Z,9.20
2019-05-18T03:24:47.789Z,9.87
2019-05-18T03:27:34.353Z,9.37
2019-05-18T03:30:21.013Z,9.10
2019-05-18T03:33:07.921Z,9.33
2019-05-18T03:35:54.955Z,9.53
2019-05-18T03:38:41.588Z,9.30
2019-05-18T03:41:28.422Z,9.20
2019-05-18T03:44:16.690Z,9.23
2019-05-18T03:47:03.510Z,9.37
2019-05-18T03:49:50.300Z,9.83
2019-05-18T03:52:36.956Z,9.27
2019-05-18T03:55:23.591Z,9.03
2019-05-18T03:58:10.187Z,9.53
2019-05-18T04:00:57.012Z,9.23
2019-05-18T04:03:43.648Z,9.10
2019-05-18T04:06:30.093Z,9.40
2019-05-18T04:09:16.798Z,9.57
2019-05-18T04:12:02.922Z,9.43
2019-05-18T04:14:49.220Z,9.47
2019-05-18T04:17:35.516Z,9.50
2019-05-18T04:20:21.579Z,9.73
2019-05-18T04:23:08.222Z,9.10
2019-05-18T04:25:54.998Z,9.40
2019-05-18T04:28:41.650Z,9.50
2019-05-18T04:31:32.113Z,9.20
2019-05-18T04:34:17.235Z,9.40
2019-05-18T04:37:04.930Z,9.33
2019-05-18T04:39:51.588Z,9.27
2019-05-18T04:42:38.486Z,9.50
2019-05-18T04:45:25.172Z,9.40
2019-05-18T04:48:11.723Z,9.33
2019-05-18T04:50:58.063Z,9.30
2019-05-18T04:53:44.792Z,9.40
2019-05-18T04:56:31.477Z,9.70
2019-05-18T04:59:18.179Z,9.03
2019-05-18T05:02:04.844Z,9.40
2019-05-18T05:04:56.201Z,9.97
2019-05-18T05:07:40.254Z,9.30
2019-05-18T05:10:28.188Z,9.40
2019-05-18T05:13:14.983Z,9.33
2019-05-18T05:16:01.834Z,9.57
2019-05-18T05:18:48.479Z,10.10
2019-05-18T05:21:35.416Z,9.80
2019-05-18T05:24:21.803Z,9.83
2019-05-18T05:27:08.830Z,9.90
2019-05-18T05:29:55.348Z,9.90
2019-05-18T05:32:46.090Z,9.60
2019-05-18T05:35:32.859Z,9.40
2019-05-18T05:38:21.609Z,10.20
2019-05-18T05:41:18.844Z,9.77
2019-05-18T05:44:05.046Z,9.90
2019-05-18T05:46:51.223Z,9.87
2019-05-18T05:49:37.979Z,9.77
2019-05-18T05:52:24.149Z,9.87
2019-05-18T05:55:11.578Z,9.80
2019-05-18T05:57:57.829Z,9.83
2019-05-18T06:00:44.063Z,9.77
2019-05-18T06:03:30.328Z,9.70
2019-05-18T06:06:16.388Z,9.70
2019-05-18T06:09:05.290Z,10.40
2019-05-18T06:11:51.851Z,9.80
2019-05-18T06:14:37.974Z,9.67
2019-05-18T06:17:24.174Z,10.03
2019-05-18T06:20:10.374Z,9.90
2019-05-18T06:22:56.906Z,9.70
2019-05-18T06:25:43.180Z,9.50
2019-05-18T06:28:29.787Z,9.50
2019-05-18T06:31:16.025Z,9.60
2019-05-18T06:34:02.314Z,9.40
2019-05-18T06:36:48.528Z,9.90
2019-05-18T06:39:34.684Z,9.60
2019-05-18T06:42:20.841Z,9.70
2019-05-18T06:45:07.232Z,9.50
2019-05-18T06:47:53.842Z,9.50
2019-05-18T06:50:40.093Z,9.37
2019-05-18T06:53:26.641Z,9.90
2019-05-18T06:56:13.604Z,9.37
2019-05-18T06:59:00.366Z,9.40
2019-05-18T07:01:46.576Z,9.53
2019-05-18T07:04:32.913Z,9.43
2019-05-18T07:07:19.051Z,9.50
2019-05-18T07:10:05.563Z,9.40
2019-05-18T07:12:52.070Z,9.80
2019-05-18T07:15:38.685Z,9.20
2019-05-18T07:21:21.326Z,10.17
2019-05-18T07:23:57.590Z,10.30
2019-05-18T07:26:43.967Z,10.00
2019-05-18T07:29:30.311Z,9.80
2019-05-18T07:32:16.589Z,9.60
2019-05-18T07:35:03.138Z,9.70
2019-05-18T07:37:51.074Z,9.80
2019-05-18T07:40:37.645Z,10.00
2019-05-18T07:43:24.288Z,9.70
2019-05-18T07:46:10.789Z,9.53
2019-05-18T07:48:57.699Z,9.53
2019-05-18T07:51:45.558Z,9.30
2019-05-18T07:54:31.882Z,9.27
2019-05-18T07:57:18.407Z,9.70
2019-05-18T08:00:05.458Z,9.60
2019-05-18T08:02:52.019Z,9.80
2019-05-18T08:05:38.626Z,9.50
2019-05-18T08:08:25.310Z,10.17
2019-05-18T08:11:11.701Z,9.90
2019-05-18T08:13:58.577Z,10.47
2019-05-18T08:16:45.385Z,9.90
2019-05-18T08:19:32.091Z,10.00
2019-05-18T08:22:18.640Z,10.20
2019-05-18T08:25:05.886Z,10.30
2019-05-18T08:27:52.395Z,9.77
2019-05-18T08:30:39.383Z,9.53
2019-05-18T08:33:25.682Z,10.30
2019-05-18T08:36:12.501Z,9.97
2019-05-18T08:38:59.549Z,10.23
2019-05-18T08:41:48.740Z,9.90
2019-05-18T08:44:35.232Z,10.60
2019-05-18T08:47:21.643Z,10.43
2019-05-18T08:50:09.189Z,10.10
2019-05-18T08:52:56.386Z,9.83
2019-05-18T08:55:43.296Z,9.97
2019-05-18T08:58:30.264Z,10.30
2019-05-18T09:01:17.108Z,10.40
2019-05-18T09:04:04.417Z,10.07
2019-05-18T09:06:51.472Z,10.50
2019-05-18T09:09:37.799Z,10.53
2019-05-18T09:12:24.218Z,9.90
2019-05-18T09:15:11.325Z,10.60
2019-05-18T09:17:58.922Z,10.17
2019-05-18T09:20:45.827Z,10.33
2019-05-18T09:23:34.862Z,10.17
2019-05-18T09:26:21.792Z,10.20
2019-05-18T09:29:08.382Z,9.93
2019-05-18T09:31:55.391Z,10.23
2019-05-18T09:34:42.274Z,9.30
2019-05-18T09:37:29.009Z,10.03
2019-05-18T09:40:15.756Z,9.93
2019-05-18T09:43:02.323Z,9.90
2019-05-18T09:45:48.659Z,10.03
2019-05-18T09:48:35.613Z,10.63
2019-05-18T09:51:22.442Z,10.33
2019-05-18T09:54:09.401Z,10.77
2019-05-18T09:56:56.090Z,10.30
2019-05-18T09:59:43.011Z,10.60
2019-05-18T10:02:29.262Z,9.63
2019-05-18T10:05:16.648Z,11.13
2019-05-18T10:08:10.475Z,9.70
2019-05-18T10:10:57.248Z,9.30
2019-05-18T10:13:44.125Z,9.80
2019-05-18T10:16:30.597Z,10.10
2019-05-18T10:19:17.090Z,9.80
2019-05-18T10:22:03.942Z,10.50
2019-05-18T10:24:50.410Z,10.17
2019-05-18T10:27:37.181Z,10.37
2019-05-18T10:30:23.651Z,10.60
2019-05-18T10:33:10.418Z,10.17
2019-05-18T10:35:56.749Z,10.20
2019-05-18T10:38:43.687Z,10.13
2019-05-18T10:41:29.943Z,9.87
2019-05-18T10:44:16.462Z,9.50
2019-05-18T10:47:02.801Z,9.70
2019-05-18T10:49:49.614Z,9.80
2019-05-18T10:52:36.057Z,10.03
2019-05-18T10:55:23.032Z,9.90
2019-05-18T10:58:09.760Z,9.70
2019-05-18T11:00:56.202Z,9.43
2019-05-18T11:03:43.165Z,9.73
2019-05-18T11:06:30.040Z,9.50
2019-05-18T11:09:16.391Z,9.43
2019-05-18T11:12:03.422Z,9.80
2019-05-18T11:14:50.197Z,9.67
2019-05-18T11:17:37.139Z,10.10
2019-05-18T11:20:23.713Z,10.23
2019-05-18T11:23:10.399Z,10.03
2019-05-18T11:25:56.941Z,10.07
2019-05-18T11:28:43.922Z,10.20
2019-05-18T11:31:31.623Z,10.13
2019-05-18T11:34:18.535Z,10.47
2019-05-18T11:37:05.491Z,10.73
2019-05-18T11:39:52.352Z,11.10
2019-05-18T11:42:38.931Z,11.10
2019-05-18T11:45:26.120Z,10.80
2019-05-18T11:48:12.690Z,10.97
2019-05-18T11:50:59.118Z,10.83
2019-05-18T11:53:57.486Z,11.20
2019-05-18T11:56:33.863Z,11.60
2019-05-18T11:59:20.164Z,10.70
2019-05-18T12:02:06.552Z,10.63
2019-05-18T12:04:52.840Z,10.50
2019-05-18T12:07:39.195Z,10.60
2019-05-18T12:10:25.624Z,10.87
2019-05-18T12:13:12.436Z,10.43
2019-05-18T12:15:58.848Z,10.27
2019-05-18T12:18:45.853Z,10.07
2019-05-18T12:21:32.597Z,10.40
2019-05-18T12:24:19.014Z,10.53
2019-05-18T12:27:05.374Z,10.40
2019-05-18T12:29:52.192Z,9.73
2019-05-18T12:32:38.427Z,10.00
2019-05-18T12:35:24.892Z,10.00
2019-05-18T12:38:11.144Z,10.10
2019-05-18T12:40:57.600Z,10.23
2019-05-18T12:43:44.572Z,9.90
2019-05-18T12:46:31.502Z,9.70
2019-05-18T12:49:18.220Z,9.87
2019-05-18T12:52:04.835Z,9.83
2019-05-18T12:54:51.453Z,10.03
2019-05-18T12:57:38.243Z,10.07
2019-05-18T13:00:28.489Z,10.20
2019-05-18T13:03:14.996Z,9.70
2019-05-18T13:06:01.317Z,9.70
2019-05-18T13:08:47.732Z,9.90
2019-05-18T13:11:34.264Z,9.90
2019-05-18T13:14:21.016Z,10.03
2019-05-18T13:17:07.511Z,9.77
2019-05-18T13:19:54.060Z,9.40
2019-05-18T13:22:40.377Z,9.60
2019-05-18T13:25:26.782Z,9.50
2019-05-18T13:28:13.062Z,9.07
2019-05-18T13:30:59.440Z,9.40
2019-05-18T13:33:45.917Z,9.23
2019-05-18T13:36:32.678Z,9.50
2019-05-18T13:39:18.960Z,9.53
2019-05-18T13:42:24.246Z,9.13
2019-05-18T13:45:11.482Z,9.37
2019-05-18T13:47:58.091Z,9.50
2019-05-18T13:50:44.899Z,9.30
2019-05-18T13:53:31.964Z,9.10
2019-05-18T13:56:18.238Z,9.63
2019-05-18T13:59:04.724Z,9.10
2019-05-18T14:01:51.270Z,8.77
2019-05-18T14:04:38.044Z,8.87
2019-05-18T14:07:24.393Z,8.70
2019-05-18T14:10:12.631Z,8.90
2019-05-18T14:12:59.503Z,8.87
2019-05-18T14:15:45.894Z,8.93
2019-05-18T14:18:32.397Z,9.00
2019-05-18T14:21:19.044Z,9.20
2019-05-18T14:24:05.613Z,9.10
2019-05-18T14:26:52.404Z,9.13
2019-05-18T14:29:39.408Z,9.00
2019-05-18T14:32:25.907Z,9.03
2019-05-18T14:35:13.154Z,8.70
2019-05-18T14:37:59.684Z,8.70
2019-05-18T14:40:46.117Z,9.20
2019-05-18T14:43:32.928Z,9.23
2019-05-18T14:46:19.146Z,8.70
2019-05-18T14:49:05.519Z,8.80
2019-05-18T14:51:52.499Z,9.10
2019-05-18T14:54:39.210Z,8.80
2019-05-18T14:57:29.100Z,8.73
2019-05-18T15:00:16.709Z,8.53
2019-05-18T15:03:03.196Z,8.83
2019-05-18T15:05:49.639Z,8.60
2019-05-18T15:08:35.892Z,9.23
2019-05-18T15:11:22.347Z,8.63
2019-05-18T15:14:08.811Z,8.73
2019-05-18T15:16:58.974Z,8.83
2019-05-18T15:19:45.661Z,8.70
2019-05-18T15:22:32.452Z,8.73
2019-05-18T15:25:19.215Z,8.80
2019-05-18T15:28:05.704Z,8.80
2019-05-18T15:30:52.054Z,8.70
2019-05-18T15:33:38.309Z,8.70
2019-05-18T15:36:24.796Z,8.40
2019-05-18T15:39:11.093Z,8.60
2019-05-18T15:41:57.415Z,8.73
2019-05-18T15:44:43.912Z,8.50
2019-05-18T15:47:30.603Z,8.80
2019-05-18T15:50:18.551Z,9.00
2019-05-18T15:53:05.230Z,8.83
2019-05-18T15:56:04.875Z,8.87
2019-05-18T15:58:42.564Z,8.80
2019-05-18T16:01:29.570Z,8.53
2019-05-18T16:04:16.382Z,8.47
2019-05-18T16:07:03.316Z,8.50
2019-05-18T16:09:50.960Z,8.43
2019-05-18T16:12:37.316Z,8.73
2019-05-18T16:15:23.669Z,8.40
2019-05-18T16:18:10.517Z,8.67
2019-05-18T16:20:57.058Z,8.47
2019-05-18T16:23:43.824Z,8.63
2019-05-18T16:26:30.201Z,8.60
2019-05-18T16:29:16.680Z,8.57
2019-05-18T16:32:03.569Z,8.63
2019-05-18T16:34:50.351Z,8.70
2019-05-18T16:37:36.854Z,8.70
2019-05-18T16:40:24.612Z,8.50
2019-05-18T16:43:11.000Z,8.40
2019-05-18T16:45:57.323Z,8.60
2019-05-18T16:48:43.686Z,8.40
2019-05-18T16:51:30.359Z,8.60
2019-05-18T16:54:17.309Z,8.77
2019-05-18T16:57:03.995Z,8.50
2019-05-18T16:59:50.290Z,8.50
2019-05-18T17:02:36.755Z,8.80
2019-05-18T17:05:23.121Z,8.60
2019-05-18T17:08:09.444Z,8.70
2019-05-18T17:10:55.893Z,8.70
2019-05-18T17:13:42.671Z,8.83
2019-05-18T17:16:29.004Z,8.70
2019-05-18T17:19:15.950Z,8.60
2019-05-18T17:22:02.249Z,8.70
2019-05-18T17:24:49.017Z,8.63
2019-05-18T17:27:35.642Z,8.60
2019-05-18T17:30:23.540Z,8.97
2019-05-18T17:33:10.185Z,8.77
2019-05-18T17:36:00.311Z,8.90
2019-05-18T17:38:46.072Z,8.87
2019-05-18T17:41:32.898Z,8.70
2019-05-18T17:44:19.308Z,9.00
2019-05-18T17:47:06.283Z,8.80
2019-05-18T17:49:52.645Z,8.30
2019-05-18T17:52:39.534Z,8.67
2019-05-18T17:55:26.544Z,8.67
2019-05-18T17:58:13.127Z,9.00
2019-05-18T18:00:59.493Z,8.50
2019-05-18T18:03:46.308Z,8.60
2019-05-18T18:06:32.662Z,8.70
2019-05-18T18:09:19.126Z,8.50
2019-05-18T18:12:05.977Z,8.80
2019-05-18T18:14:52.787Z,8.50
2019-05-18T18:17:39.505Z,8.80
2019-05-18T18:20:26.430Z,8.90
2019-05-18T18:23:13.098Z,9.07
2019-05-18T18:25:59.969Z,8.70
2019-05-18T18:28:46.904Z,8.70
2019-05-18T18:31:33.583Z,8.90
2019-05-18T18:34:19.992Z,8.57
2019-05-18T18:37:06.490Z,8.73
2019-05-18T18:39:52.847Z,8.80
2019-05-18T18:42:39.138Z,8.70
2019-05-18T18:45:25.745Z,8.80
2019-05-18T18:48:12.620Z,9.10
2019-05-18T18:50:59.002Z,9.03
2019-05-18T18:53:45.744Z,9.27
2019-05-18T18:56:33.298Z,9.00
2019-05-18T18:59:21.120Z,9.03
2019-05-18T19:02:07.509Z,8.87
2019-05-18T19:05:03.535Z,9.13
2019-05-18T19:07:50.360Z,9.33
2019-05-18T19:10:36.983Z,9.50
2019-05-18T19:13:23.376Z,9.27
2019-05-18T19:16:09.997Z,9.50
2019-05-18T19:18:56.244Z,9.60
2019-05-18T19:21:42.763Z,9.53
2019-05-18T19:24:29.585Z,9.70
2019-05-18T19:27:16.482Z,9.30
2019-05-18T19:30:03.038Z,9.60
2019-05-18T19:32:49.678Z,9.60
2019-05-18T19:35:35.997Z,10.27
2019-05-18T19:38:22.460Z,9.90
2019-05-18T19:41:08.898Z,10.10
2019-05-18T19:43:55.361Z,9.83
2019-05-18T19:46:41.725Z,10.03
2019-05-18T19:49:28.712Z,10.00
2019-05-18T19:52:14.951Z,9.60
2019-05-18T19:55:01.429Z,9.60
2019-05-18T19:57:47.854Z,9.50
2019-05-18T20:00:34.164Z,15.73
2019-05-18T20:03:20.667Z,12.63
2019-05-18T20:06:07.529Z,16.97
2019-05-18T20:08:53.753Z,15.23
2019-05-18T20:11:40.183Z,13.00
2019-05-18T20:14:26.576Z,12.50
2019-05-18T20:17:14.301Z,11.40
2019-05-18T20:20:00.794Z,12.37
2019-05-18T20:22:47.094Z,12.00
2019-05-18T20:25:33.415Z,10.60
2019-05-18T20:28:23.665Z,10.70
2019-05-18T20:31:08.331Z,11.53
2019-05-18T20:33:55.161Z,10.50
2019-05-18T20:36:41.577Z,10.70
2019-05-18T20:39:28.216Z,10.70
2019-05-18T20:42:14.948Z,10.37
2019-05-18T20:45:02.060Z,10.50
2019-05-18T20:47:48.738Z,10.30
2019-05-18T20:50:35.030Z,10.07
2019-05-18T20:53:21.784Z,10.17
2019-05-18T20:56:08.387Z,10.17
2019-05-18T20:58:54.858Z,9.70
2019-05-18T21:01:41.881Z,9.93
2019-05-18T21:04:28.418Z,10.23
2019-05-18T21:07:14.779Z,10.50
2019-05-18T21:10:01.583Z,9.80
2019-05-18T21:12:48.682Z,9.70
2019-05-18T21:15:34.952Z,9.97
2019-05-18T21:18:21.587Z,10.20
2019-05-18T21:21:08.187Z,10.20
2019-05-18T21:23:54.497Z,9.83
2019-05-18T21:26:41.164Z,9.50
2019-05-18T21:29:27.804Z,10.10
2019-05-18T21:32:14.070Z,10.23
2019-05-18T21:35:00.774Z,9.57
2019-05-18T21:37:47.364Z,9.97
2019-05-18T21:40:34.198Z,9.77
2019-05-18T21:43:20.858Z,10.40
2019-05-18T21:46:07.601Z,10.00
2019-05-18T21:48:53.985Z,9.73
2019-05-18T21:51:43.488Z,10.10
2019-05-18T21:54:30.105Z,9.77
2019-05-18T21:57:16.974Z,10.53
2019-05-18T22:00:04.447Z,9.90
2019-05-18T22:02:52.934Z,9.87
2019-05-18T22:05:39.766Z,10.20
2019-05-18T22:08:26.520Z,9.70
2019-05-18T22:11:12.982Z,9.90
2019-05-18T22:13:59.801Z,10.03
2019-05-18T22:16:46.221Z,10.10
2019-05-18T22:19:32.961Z,9.50
2019-05-18T22:22:19.459Z,9.90
2019-05-18T22:25:05.835Z,10.00
2019-05-18T22:27:52.118Z,10.20
2019-05-18T22:30:39.190Z,10.23
2019-05-18T22:33:25.402Z,9.90
2019-05-18T22:36:12.025Z,10.30
2019-05-18T22:38:58.493Z,10.17
2019-05-18T22:41:45.135Z,9.87
2019-05-18T22:44:31.910Z,10.30
2019-05-18T22:47:18.781Z,9.77
2019-05-18T22:50:07.252Z,10.13
2019-05-18T22:52:55.323Z,10.00
2019-05-18T22:55:43.237Z,10.20
2019-05-18T22:58:30.231Z,10.17
2019-05-18T23:01:17.013Z,10.07
2019-05-18T23:04:03.924Z,10.17
2019-05-18T23:06:50.918Z,9.80
2019-05-18T23:09:37.720Z,9.90
2019-05-18T23:12:24.230Z,9.87
2019-05-18T23:15:11.303Z,9.80
2019-05-18T23:17:58.216Z,9.80
2019-05-18T23:20:45.136Z,9.87
2019-05-18T23:23:32.069Z,9.50
2019-05-18T23:26:18.959Z,10.33
2019-05-18T23:29:05.869Z,10.20
2019-05-18T23:31:52.719Z,10.10
2019-05-18T23:34:39.629Z,10.00
2019-05-18T23:37:26.570Z,10.00
2019-05-18T23:40:14.514Z,10.00
2019-05-18T23:43:01.208Z,9.67
2019-05-18T23:45:48.092Z,10.00
2019-05-18T23:48:34.981Z,10.30
2019-05-18T23:54:23.297Z,9.70
2019-05-18T23:57:09.751Z,9.63
2019-05-18T23:59:56.608Z,9.70
